createdAt,value
2023-05-16T00:00:47.339Z,91.53
2023-05-16T00:01:47.421Z,91.02
2023-05-16T00:02:47.387Z,92.76
2023-05-16T00:03:47.376Z,92.82
2023-05-16T00:04:47.314Z,91.42
2023-05-16T00:05:47.290Z,91.33
2023-05-16T00:06:47.284Z,91.27
2023-05-16T00:07:47.279Z,91.57
2023-05-16T00:08:47.256Z,91.37
2023-05-16T00:09:47.294Z,91.06
2023-05-16T00:10:47.248Z,91.47
2023-05-16T00:11:47.231Z,91.88
2023-05-16T00:12:47.233Z,92.80
2023-05-16T00:13:47.208Z,93.26
2023-05-16T00:14:47.201Z,92.80
2023-05-16T00:15:47.185Z,92.44
2023-05-16T00:16:47.267Z,91.57
2023-05-16T00:17:47.272Z,91.37
2023-05-16T00:18:47.184Z,90.69
2023-05-16T00:19:47.155Z,91.20
2023-05-16T00:20:47.144Z,92.13
2023-05-16T00:21:47.137Z,92.44
2023-05-16T00:22:47.116Z,93.30
2023-05-16T00:23:47.110Z,92.89
2023-05-16T00:24:47.102Z,93.20
2023-05-16T00:25:47.091Z,94.12
2023-05-16T00:26:47.092Z,93.92
2023-05-16T00:27:47.074Z,94.43
2023-05-16T00:28:47.054Z,94.54
2023-05-16T00:29:47.048Z,94.49
2023-05-16T00:30:47.047Z,94.18
2023-05-16T00:31:47.045Z,94.39
2023-05-16T00:32:47.061Z,93.98
2023-05-16T00:33:47.007Z,93.98
2023-05-16T00:34:47.041Z,92.74
2023-05-16T00:35:47.001Z,93.26
2023-05-16T00:36:46.975Z,93.10
2023-05-16T00:37:46.977Z,91.66
2023-05-16T00:38:46.962Z,91.14
2023-05-16T00:39:46.967Z,90.88
2023-05-16T00:40:46.941Z,91.19
2023-05-16T00:41:46.919Z,91.39
2023-05-16T00:42:46.917Z,92.01
2023-05-16T00:43:46.902Z,92.11
2023-05-16T00:44:46.902Z,92.21
2023-05-16T00:45:46.936Z,92.93
2023-05-16T00:46:47.067Z,93.20
2023-05-16T00:47:46.977Z,93.86
2023-05-16T00:48:46.860Z,93.04
2023-05-16T00:49:46.848Z,91.44
2023-05-16T00:50:46.829Z,91.74
2023-05-16T00:51:46.855Z,91.27
2023-05-16T00:52:46.807Z,92.34
2023-05-16T00:53:46.798Z,93.16
2023-05-16T00:54:46.800Z,93.88
2023-05-16T00:55:46.779Z,94.60
2023-05-16T00:56:46.766Z,95.23
2023-05-16T00:57:46.755Z,94.20
2023-05-16T00:58:46.768Z,94.46
2023-05-16T00:59:46.763Z,94.67
2023-05-16T01:00:48.572Z,94.98
2023-05-16T01:01:46.772Z,94.15
2023-05-16T01:02:46.879Z,94.56
2023-05-16T01:03:46.992Z,93.84
2023-05-16T01:04:46.680Z,93.12
2023-05-16T01:05:46.711Z,92.50
2023-05-16T01:06:46.670Z,91.85
2023-05-16T01:07:46.654Z,91.58
2023-05-16T01:08:46.655Z,93.18
2023-05-16T01:09:46.642Z,93.64
2023-05-16T01:10:46.625Z,93.29
2023-05-16T01:11:46.615Z,93.18
2023-05-16T01:12:46.600Z,93.29
2023-05-16T01:13:46.603Z,92.97
2023-05-16T01:14:46.577Z,93.18
2023-05-16T01:15:46.617Z,92.83
2023-05-16T01:16:46.574Z,92.32
2023-05-16T01:17:46.609Z,93.24
2023-05-16T01:18:46.600Z,92.73
2023-05-16T01:19:46.533Z,92.83
2023-05-16T01:20:46.536Z,93.14
2023-05-16T01:21:46.522Z,93.10
2023-05-16T01:22:46.509Z,93.24
2023-05-16T01:23:46.514Z,93.55
2023-05-16T01:24:46.507Z,93.61
2023-05-16T01:25:46.484Z,94.02
2023-05-16T01:26:46.511Z,93.86
2023-05-16T01:27:46.463Z,93.35
2023-05-16T01:28:46.457Z,93.24
2023-05-16T01:29:46.442Z,93.65
2023-05-16T01:30:46.432Z,93.86
2023-05-16T01:31:46.459Z,93.96
2023-05-16T01:32:46.457Z,93.71
2023-05-16T01:33:46.398Z,94.54
2023-05-16T01:34:47.393Z,94.02
2023-05-16T01:35:46.381Z,95.05
2023-05-16T01:36:46.381Z,94.64
2023-05-16T01:37:46.371Z,94.70
2023-05-16T01:38:46.351Z,95.31
2023-05-16T01:39:46.338Z,94.59
2023-05-16T01:40:46.326Z,94.59
2023-05-16T01:41:46.332Z,94.49
2023-05-16T01:42:46.314Z,93.87
2023-05-16T01:43:46.313Z,94.45
2023-05-16T01:44:46.291Z,94.76
2023-05-16T01:45:46.280Z,94.45
2023-05-16T01:46:46.311Z,94.96
2023-05-16T01:47:46.274Z,94.65
2023-05-16T01:48:46.259Z,94.40
2023-05-16T01:49:46.244Z,94.51
2023-05-16T01:50:46.253Z,94.51
2023-05-16T01:51:46.227Z,95.23
2023-05-16T01:52:46.213Z,95.23
2023-05-16T01:53:46.195Z,95.43
2023-05-16T01:54:46.196Z,95.12
2023-05-16T01:55:46.199Z,94.51
2023-05-16T01:56:46.172Z,95.12
2023-05-16T01:57:46.179Z,95.23
2023-05-16T01:58:46.161Z,94.92
2023-05-16T01:59:46.141Z,94.81
2023-05-16T02:00:46.192Z,95.12
2023-05-16T02:01:46.140Z,95.12
2023-05-16T02:02:46.162Z,95.02
2023-05-16T02:03:46.142Z,94.71
2023-05-16T02:04:46.084Z,94.71
2023-05-16T02:05:46.087Z,95.53
2023-05-16T02:06:46.101Z,96.15
2023-05-16T02:07:46.062Z,96.15
2023-05-16T02:08:46.051Z,96.31
2023-05-16T02:09:46.045Z,93.89
2023-05-16T02:10:46.040Z,95.02
2023-05-16T02:11:46.021Z,95.27
2023-05-16T02:12:46.019Z,95.23
2023-05-16T02:13:45.994Z,94.85
2023-05-16T02:14:45.995Z,94.76
2023-05-16T02:15:45.972Z,95.68
2023-05-16T02:16:45.980Z,95.89
2023-05-16T02:17:45.977Z,96.09
2023-05-16T02:18:46.002Z,95.84
2023-05-16T02:19:45.941Z,95.68
2023-05-16T02:20:45.919Z,94.92
2023-05-16T02:21:45.911Z,95.12
2023-05-16T02:22:45.897Z,95.02
2023-05-16T02:23:45.902Z,95.07
2023-05-16T02:24:45.885Z,95.07
2023-05-16T02:25:45.879Z,95.07
2023-05-16T02:26:45.871Z,95.18
2023-05-16T02:27:45.842Z,95.07
2023-05-16T02:28:45.846Z,95.03
2023-05-16T02:29:45.847Z,95.28
2023-05-16T02:30:45.836Z,95.44
2023-05-16T02:31:45.816Z,95.54
2023-05-16T02:32:45.795Z,94.78
2023-05-16T02:33:45.790Z,94.78
2023-05-16T02:34:45.766Z,94.89
2023-05-16T02:35:45.769Z,95.09
2023-05-16T02:36:45.749Z,95.09
2023-05-16T02:37:45.738Z,94.78
2023-05-16T02:38:45.741Z,95.05
2023-05-16T02:39:45.715Z,94.95
2023-05-16T02:40:45.711Z,94.33
2023-05-16T02:41:45.701Z,94.99
2023-05-16T02:42:45.692Z,95.05
2023-05-16T02:43:47.105Z,94.54
2023-05-16T02:44:46.670Z,94.54
2023-05-16T02:45:45.739Z,94.33
2023-05-16T02:46:45.718Z,94.23
2023-05-16T02:47:45.689Z,94.74
2023-05-16T02:48:45.624Z,93.92
2023-05-16T02:49:45.610Z,94.33
2023-05-16T02:50:45.599Z,94.43
2023-05-16T02:51:45.576Z,94.18
2023-05-16T02:52:46.589Z,93.92
2023-05-16T02:53:45.575Z,93.67
2023-05-16T02:54:48.883Z,93.98
2023-05-16T02:55:46.540Z,93.77
2023-05-16T02:56:45.524Z,93.47
2023-05-16T02:57:45.532Z,93.57
2023-05-16T02:58:45.512Z,93.32
2023-05-16T02:59:45.505Z,93.63
2023-05-16T03:00:45.490Z,93.73
2023-05-16T03:01:45.545Z,93.22
2023-05-16T03:02:45.588Z,92.91
2023-05-16T03:03:45.578Z,93.22
2023-05-16T03:04:45.454Z,93.01
2023-05-16T03:05:45.455Z,93.12
2023-05-16T03:06:45.453Z,92.81
2023-05-16T03:07:45.423Z,92.91
2023-05-16T03:08:45.408Z,92.56
2023-05-16T03:09:45.407Z,92.81
2023-05-16T03:10:45.387Z,93.38
2023-05-16T03:11:45.386Z,93.59
2023-05-16T03:12:45.374Z,93.48
2023-05-16T03:13:45.357Z,93.79
2023-05-16T03:14:45.340Z,92.81
2023-05-16T03:15:45.365Z,92.77
2023-05-16T03:16:45.420Z,93.07
2023-05-16T03:17:45.352Z,92.46
2023-05-16T03:18:45.360Z,92.77
2023-05-16T03:19:45.288Z,92.87
2023-05-16T03:20:45.296Z,92.77
2023-05-16T03:21:45.284Z,92.77
2023-05-16T03:22:45.278Z,92.87
2023-05-16T03:23:45.269Z,92.77
2023-05-16T03:24:45.292Z,92.25
2023-05-16T03:25:45.249Z,92.66
2023-05-16T03:26:45.226Z,92.42
2023-05-16T03:27:45.210Z,92.66
2023-05-16T03:28:45.201Z,92.93
2023-05-16T03:29:45.181Z,92.32
2023-05-16T03:30:45.188Z,92.42
2023-05-16T03:31:45.216Z,92.52
2023-05-16T03:32:45.202Z,92.42
2023-05-16T03:33:45.149Z,92.37
2023-05-16T03:34:45.162Z,92.42
2023-05-16T03:35:45.131Z,92.42
2023-05-16T03:36:45.108Z,91.29
2023-05-16T03:37:45.105Z,92.42
2023-05-16T03:38:45.102Z,92.42
2023-05-16T03:39:45.101Z,91.91
2023-05-16T03:40:45.067Z,91.66
2023-05-16T03:41:45.058Z,91.70
2023-05-16T03:42:45.049Z,91.66
2023-05-16T03:43:45.038Z,91.76
2023-05-16T03:44:45.040Z,91.25
2023-05-16T03:45:45.046Z,91.50
2023-05-16T03:46:45.005Z,92.37
2023-05-16T03:47:45.044Z,91.66
2023-05-16T03:48:44.998Z,92.68
2023-05-16T03:49:44.986Z,92.78
2023-05-16T03:50:44.966Z,91.91
2023-05-16T03:51:44.954Z,91.35
2023-05-16T03:52:44.943Z,90.37
2023-05-16T03:53:44.954Z,90.27
2023-05-16T03:54:44.923Z,88.74
2023-05-16T03:55:46.821Z,89.35
2023-05-16T03:56:44.898Z,88.64
2023-05-16T03:57:44.892Z,88.53
2023-05-16T03:58:44.892Z,88.33
2023-05-16T03:59:44.870Z,88.49
2023-05-16T04:00:44.862Z,89.35
2023-05-16T04:01:44.913Z,89.11
2023-05-16T04:02:45.100Z,88.79
2023-05-16T04:03:44.844Z,88.49
2023-05-16T04:04:44.835Z,88.39
2023-05-16T04:05:44.849Z,88.59
2023-05-16T04:06:44.811Z,88.59
2023-05-16T04:07:44.802Z,88.49
2023-05-16T04:08:44.787Z,88.49
2023-05-16T04:09:44.769Z,89.00
2023-05-16T04:10:44.757Z,88.29
2023-05-16T04:11:44.754Z,87.67
2023-05-16T04:12:44.757Z,87.16
2023-05-16T04:13:44.910Z,87.88
2023-05-16T04:14:44.722Z,87.26
2023-05-16T04:15:44.705Z,87.47
2023-05-16T04:16:44.738Z,87.88
2023-05-16T04:17:44.718Z,87.88
2023-05-16T04:18:44.688Z,88.24
2023-05-16T04:19:44.664Z,87.98
2023-05-16T04:20:44.670Z,88.18
2023-05-16T04:21:44.632Z,88.39
2023-05-16T04:22:44.634Z,86.91
2023-05-16T04:23:44.606Z,86.71
2023-05-16T04:24:44.606Z,87.23
2023-05-16T04:25:44.606Z,86.51
2023-05-16T04:26:44.578Z,86.82
2023-05-16T04:27:44.579Z,87.02
2023-05-16T04:28:44.557Z,87.23
2023-05-16T04:29:44.560Z,87.02
2023-05-16T04:30:44.535Z,87.32
2023-05-16T04:31:44.552Z,88.04
2023-05-16T04:32:44.557Z,88.24
2023-05-16T04:33:44.510Z,87.32
2023-05-16T04:34:44.511Z,87.12
2023-05-16T04:35:44.486Z,88.14
2023-05-16T04:36:44.485Z,88.35
2023-05-16T04:37:44.465Z,88.14
2023-05-16T04:38:44.444Z,87.94
2023-05-16T04:39:45.447Z,87.49
2023-05-16T04:40:44.442Z,87.18
2023-05-16T04:41:44.436Z,87.53
2023-05-16T04:42:44.427Z,88.14
2023-05-16T04:43:44.403Z,87.59
2023-05-16T04:44:44.395Z,87.90
2023-05-16T04:45:44.397Z,88.41
2023-05-16T04:46:44.397Z,87.90
2023-05-16T04:47:45.934Z,86.77
2023-05-16T04:48:44.358Z,86.57
2023-05-16T04:49:44.348Z,86.26
2023-05-16T04:50:44.354Z,86.67
2023-05-16T04:51:44.324Z,86.98
2023-05-16T04:52:44.311Z,86.98
2023-05-16T04:53:44.311Z,86.41
2023-05-16T04:54:44.402Z,86.20
2023-05-16T04:55:44.298Z,86.61
2023-05-16T04:56:44.281Z,86.67
2023-05-16T04:57:44.263Z,86.30
2023-05-16T04:58:44.274Z,85.89
2023-05-16T04:59:44.253Z,85.69
2023-05-16T05:00:44.241Z,85.08
2023-05-16T05:01:44.249Z,85.86
2023-05-16T05:02:44.244Z,86.41
2023-05-16T05:03:45.705Z,86.26
2023-05-16T05:04:44.220Z,86.91
2023-05-16T05:05:44.176Z,87.12
2023-05-16T05:06:44.181Z,86.06
2023-05-16T05:07:44.155Z,85.69
2023-05-16T05:08:44.147Z,86.30
2023-05-16T05:09:44.565Z,85.69
2023-05-16T05:10:44.125Z,86.10
2023-05-16T05:11:44.118Z,85.89
2023-05-16T05:12:44.100Z,85.69
2023-05-16T05:13:44.098Z,85.59
2023-05-16T05:14:44.094Z,86.00
2023-05-16T05:15:44.073Z,85.83
2023-05-16T05:16:44.061Z,85.59
2023-05-16T05:17:44.209Z,85.59
2023-05-16T05:18:44.087Z,85.79
2023-05-16T05:19:44.133Z,86.00
2023-05-16T05:20:44.024Z,85.89
2023-05-16T05:21:44.009Z,85.38
2023-05-16T05:22:43.996Z,84.77
2023-05-16T05:23:43.996Z,85.18
2023-05-16T05:24:43.977Z,84.98
2023-05-16T05:25:43.970Z,84.22
2023-05-16T05:26:43.960Z,84.47
2023-05-16T05:27:43.954Z,84.12
2023-05-16T05:28:50.799Z,84.63
2023-05-16T05:29:44.938Z,84.94
2023-05-16T05:30:43.931Z,84.53
2023-05-16T05:31:47.953Z,83.61
2023-05-16T05:32:43.986Z,83.98
2023-05-16T05:33:44.572Z,83.98
2023-05-16T05:34:45.062Z,83.87
2023-05-16T05:35:44.053Z,82.86
2023-05-16T05:36:43.966Z,83.26
2023-05-16T05:37:43.949Z,83.53
2023-05-16T05:38:43.923Z,83.23
2023-05-16T05:39:43.945Z,83.39
2023-05-16T05:40:43.933Z,82.10
2023-05-16T05:41:43.890Z,82.31
2023-05-16T05:42:46.705Z,83.33
2023-05-16T05:43:43.907Z,82.57
2023-05-16T05:44:43.884Z,82.88
2023-05-16T05:45:43.963Z,83.09
2023-05-16T05:46:43.811Z,83.18
2023-05-16T05:47:43.906Z,82.94
2023-05-16T05:48:43.879Z,82.13
2023-05-16T05:49:43.802Z,82.17
2023-05-16T05:50:43.819Z,82.23
2023-05-16T05:51:43.780Z,83.15
2023-05-16T05:52:43.781Z,82.23
2023-05-16T05:53:43.757Z,81.76
2023-05-16T05:54:43.756Z,82.07
2023-05-16T05:55:43.707Z,82.27
2023-05-16T05:56:43.725Z,82.37
2023-05-16T05:57:43.747Z,82.78
2023-05-16T05:58:43.711Z,81.86
2023-05-16T05:59:43.699Z,82.13
2023-05-16T06:00:43.720Z,82.17
2023-05-16T06:01:43.724Z,81.25
2023-05-16T06:02:43.839Z,81.45
2023-05-16T06:03:43.657Z,80.88
2023-05-16T06:04:44.845Z,81.86
2023-05-16T06:05:44.384Z,82.07
2023-05-16T06:06:43.734Z,82.41
2023-05-16T06:07:44.608Z,80.88
2023-05-16T06:08:43.734Z,80.68
2023-05-16T06:09:43.643Z,81.39
2023-05-16T06:10:43.599Z,81.80
2023-05-16T06:11:43.684Z,81.80
2023-05-16T06:12:43.677Z,82.21
2023-05-16T06:13:43.802Z,81.70
2023-05-16T06:14:44.168Z,81.90
2023-05-16T06:15:43.712Z,82.00
2023-05-16T06:16:44.976Z,82.00
2023-05-16T06:17:44.223Z,81.66
2023-05-16T06:18:43.758Z,81.70
2023-05-16T06:19:44.940Z,81.18
2023-05-16T06:20:44.125Z,81.90
2023-05-16T06:21:43.887Z,80.98
2023-05-16T06:22:43.826Z,81.84
2023-05-16T06:23:49.021Z,81.59
2023-05-16T06:24:43.950Z,82.51
2023-05-16T06:26:17.722Z,81.90
2023-05-16T06:26:52.961Z,81.90
2023-05-16T06:27:48.589Z,80.88
2023-05-16T06:28:43.439Z,81.18
2023-05-16T06:29:43.465Z,81.73
2023-05-16T06:30:43.429Z,81.80
2023-05-16T06:31:43.490Z,82.86
2023-05-16T06:33:20.658Z,82.21
2023-05-16T06:34:04.728Z,81.70
2023-05-16T07:24:10.687Z,81.56
2023-05-16T07:25:10.867Z,80.78
2023-05-16T07:26:10.709Z,80.78
2023-05-16T07:27:10.787Z,80.47
2023-05-16T07:28:10.638Z,80.37
2023-05-16T07:30:36.585Z,80.02
2023-05-16T07:33:09.533Z,79.93
2023-05-16T07:34:09.528Z,80.23
2023-05-16T07:35:09.524Z,79.41
2023-05-16T07:36:16.890Z,78.91
2023-05-16T07:38:47.511Z,78.91
2023-05-16T07:39:36.529Z,79.21
2023-05-16T07:40:36.433Z,79.35
2023-05-16T07:41:36.581Z,79.11
2023-05-16T07:44:26.006Z,79.04
2023-05-16T07:45:02.434Z,77.86
2023-05-16T07:46:02.406Z,78.94
2023-05-16T07:47:02.395Z,79.75
2023-05-16T07:48:03.106Z,80.20
2023-05-16T07:49:02.387Z,78.88
2023-05-16T07:50:02.374Z,79.28
2023-05-16T07:51:13.417Z,80.10
2023-05-16T07:52:02.317Z,80.10
2023-05-16T07:53:02.295Z,80.00
2023-05-16T07:54:02.350Z,79.39
2023-05-16T07:55:02.312Z,80.30
2023-05-16T07:56:02.276Z,80.82
2023-05-16T07:57:02.254Z,80.61
2023-05-16T07:58:02.258Z,81.53
2023-05-16T07:59:02.321Z,79.55
2023-05-16T08:00:02.245Z,79.18
2023-05-16T08:01:02.210Z,79.90
2023-05-16T08:02:02.268Z,79.80
2023-05-16T08:03:02.340Z,77.82
2023-05-16T08:04:02.240Z,78.94
2023-05-16T08:05:02.228Z,78.94
2023-05-16T08:06:02.346Z,79.04
2023-05-16T08:07:02.158Z,76.80
2023-05-16T08:08:02.135Z,78.84
2023-05-16T08:09:02.141Z,77.68
2023-05-16T08:10:02.140Z,75.54
2023-05-16T08:11:02.179Z,77.07
2023-05-16T08:12:02.104Z,77.07
2023-05-16T08:13:02.116Z,77.85
2023-05-16T08:14:02.087Z,73.67
2023-05-16T08:15:02.066Z,74.38
2023-05-16T08:16:02.113Z,71.73
2023-05-16T08:17:03.003Z,73.77
2023-05-16T08:18:02.078Z,74.15
2023-05-16T08:19:02.061Z,75.47
2023-05-16T08:20:02.005Z,72.41
2023-05-16T08:21:02.003Z,73.54
2023-05-16T08:22:01.992Z,72.82
2023-05-16T08:23:01.983Z,72.89
2023-05-16T08:24:01.996Z,72.11
2023-05-16T08:25:01.954Z,73.23
2023-05-16T08:26:01.950Z,71.36
2023-05-16T08:27:01.976Z,72.01
2023-05-16T08:28:01.936Z,73.06
2023-05-16T08:29:01.917Z,72.14
2023-05-16T08:30:01.910Z,72.86
2023-05-16T08:31:01.920Z,73.77
2023-05-16T08:32:02.004Z,73.13
2023-05-16T08:33:01.993Z,70.72
2023-05-16T08:34:01.870Z,72.62
2023-05-16T08:35:01.850Z,73.43
2023-05-16T08:36:01.835Z,71.30
2023-05-16T08:37:01.843Z,70.07
2023-05-16T08:38:01.930Z,71.39
2023-05-16T08:39:01.806Z,70.10
2023-05-16T08:40:01.802Z,72.75
2023-05-16T08:41:01.792Z,72.34
2023-05-16T08:42:01.794Z,72.41
2023-05-16T08:43:01.812Z,72.58
2023-05-16T08:44:01.767Z,72.31
2023-05-16T08:45:01.742Z,71.87
2023-05-16T08:46:01.749Z,69.73
2023-05-16T08:47:01.793Z,70.10
2023-05-16T08:48:01.776Z,72.55
2023-05-16T08:49:01.713Z,72.21
2023-05-16T08:50:01.779Z,70.07
2023-05-16T08:51:01.703Z,70.86
2023-05-16T08:52:01.765Z,70.55
2023-05-16T08:53:01.671Z,69.30
2023-05-16T08:54:01.655Z,69.20
2023-05-16T08:56:01.660Z,70.59
2023-05-16T08:57:01.628Z,68.25
2023-05-16T08:58:01.624Z,67.94
2023-05-16T08:59:01.615Z,67.64
2023-05-16T09:00:01.597Z,67.61
2023-05-16T09:01:01.644Z,68.32
2023-05-16T09:02:01.587Z,68.22
2023-05-16T09:03:01.600Z,67.88
2023-05-16T09:04:01.641Z,65.34
2023-05-16T09:05:01.567Z,64.23
2023-05-16T09:06:01.569Z,65.37
2023-05-16T09:07:01.524Z,65.55
2023-05-16T09:08:01.544Z,66.26
2023-05-16T09:09:01.507Z,64.00
2023-05-16T09:10:01.543Z,63.26
2023-05-16T09:11:01.483Z,61.02
2023-05-16T09:12:01.482Z,60.24
2023-05-16T09:13:01.469Z,63.21
2023-05-16T09:14:01.459Z,64.91
2023-05-16T09:15:01.547Z,63.32
2023-05-16T09:16:01.440Z,61.90
2023-05-16T09:17:01.433Z,61.56
2023-05-16T09:18:01.538Z,61.16
2023-05-16T09:19:01.479Z,60.14
2023-05-16T09:20:01.439Z,61.76
2023-05-16T09:21:01.382Z,60.58
2023-05-16T09:22:01.389Z,62.30
2023-05-16T09:23:01.384Z,62.51
2023-05-16T09:24:01.382Z,62.84
2023-05-16T09:25:01.346Z,63.62
2023-05-16T09:26:01.336Z,61.82
2023-05-16T09:27:01.342Z,62.56
2023-05-16T09:28:01.576Z,63.48
2023-05-16T09:29:01.338Z,64.29
2023-05-16T09:30:01.289Z,63.40
2023-05-16T09:31:01.274Z,62.39
2023-05-16T09:32:01.271Z,63.51
2023-05-16T09:33:01.321Z,63.88
2023-05-16T09:34:01.257Z,64.79
2023-05-16T09:35:01.256Z,64.90
2023-05-16T09:36:01.223Z,64.49
2023-05-16T09:37:01.206Z,63.48
2023-05-16T09:38:01.219Z,62.33
2023-05-16T09:39:01.192Z,63.14
2023-05-16T09:40:01.180Z,64.84
2023-05-16T09:41:01.177Z,64.13
2023-05-16T09:42:01.164Z,64.00
2023-05-16T09:43:01.158Z,64.88
2023-05-16T09:44:01.150Z,62.95
2023-05-16T09:45:02.077Z,60.82
2023-05-16T09:46:01.250Z,60.75
2023-05-16T09:47:01.104Z,61.83
2023-05-16T09:48:01.148Z,62.14
2023-05-16T09:49:01.083Z,62.54
2023-05-16T09:50:01.073Z,61.43
2023-05-16T09:51:02.348Z,62.75
2023-05-16T09:52:01.056Z,62.52
2023-05-16T09:53:01.051Z,60.59
2023-05-16T09:54:01.025Z,60.79
2023-05-16T09:55:01.015Z,63.43
2023-05-16T09:56:01.015Z,60.49
2023-05-16T09:57:03.011Z,58.36
2023-05-16T09:58:01.021Z,59.33
2023-05-16T09:59:00.971Z,60.79
2023-05-16T10:00:00.965Z,58.90
2023-05-16T10:01:00.952Z,59.03
2023-05-16T10:02:01.672Z,60.35
2023-05-16T10:03:11.663Z,61.83
2023-05-16T10:05:27.194Z,61.37
2023-05-16T10:06:26.889Z,61.65
2023-05-16T10:07:26.892Z,61.01
2023-05-16T10:08:27.031Z,61.92
2023-05-16T10:12:24.481Z,57.75
2023-05-16T10:13:24.466Z,54.64
2023-05-16T10:19:20.079Z,56.96
2023-05-16T10:19:42.900Z,54.63
2023-05-16T10:20:42.925Z,55.54
2023-05-16T10:21:42.900Z,58.58
2023-05-16T10:22:42.869Z,56.32
2023-05-16T10:23:42.954Z,52.87
2023-05-16T10:24:42.854Z,54.99
2023-05-16T10:25:42.841Z,51.15
2023-05-16T10:26:42.843Z,51.07
2023-05-16T10:27:42.817Z,51.61
2023-05-16T10:28:42.818Z,55.21
2023-05-16T10:29:53.580Z,53.55
2023-05-16T10:30:43.796Z,49.94
2023-05-16T10:31:42.858Z,50.55
2023-05-16T10:32:43.064Z,50.21
2023-05-16T10:33:42.748Z,55.69
2023-05-16T10:34:42.794Z,54.94
2023-05-16T10:35:42.751Z,53.80
2023-05-16T10:36:42.721Z,54.68
2023-05-16T10:37:42.704Z,53.92
2023-05-16T10:38:42.710Z,55.19
2023-05-16T10:39:42.688Z,51.79
2023-05-16T10:40:44.041Z,51.66
2023-05-16T10:46:17.206Z,50.46
2023-05-16T10:48:26.555Z,47.45
2023-05-16T10:49:26.554Z,50.50
2023-05-16T10:50:26.563Z,50.76
2023-05-16T10:51:26.513Z,44.92
2023-05-16T10:52:26.512Z,45.07
2023-05-16T10:53:26.507Z,49.82
2023-05-16T10:54:27.131Z,48.94
2023-05-16T10:55:27.316Z,49.73
2023-05-16T10:56:26.521Z,50.68
2023-05-16T10:57:26.459Z,47.52
2023-05-16T10:58:26.451Z,47.19
2023-05-16T10:59:26.428Z,45.09
2023-05-16T11:00:26.412Z,47.00
2023-05-16T11:01:26.467Z,45.29
2023-05-16T11:02:26.490Z,44.76
2023-05-16T11:03:26.519Z,45.62
2023-05-16T11:04:26.376Z,46.83
2023-05-16T11:05:26.703Z,43.04
2023-05-16T11:06:26.387Z,44.34
2023-05-16T11:07:26.348Z,43.26
2023-05-16T11:08:26.333Z,45.06
2023-05-16T11:09:26.314Z,43.38
2023-05-16T11:10:26.306Z,43.58
2023-05-16T11:11:26.301Z,43.88
2023-05-16T11:12:26.281Z,45.69
2023-05-16T11:13:26.303Z,42.30
2023-05-16T11:14:26.273Z,47.38
2023-05-16T11:15:26.471Z,44.34
2023-05-16T11:16:26.285Z,41.55
2023-05-16T11:17:29.940Z,42.58
2023-05-16T11:18:26.260Z,47.12
2023-05-16T11:20:51.721Z,45.83
2023-05-16T11:21:51.869Z,42.76
2023-05-16T11:30:32.598Z,46.11
2023-05-16T11:31:29.501Z,46.61
2023-05-16T11:32:29.529Z,44.28
2023-05-16T11:33:29.468Z,47.30
2023-05-16T11:34:29.487Z,44.08
2023-05-16T11:35:29.769Z,43.38
2023-05-16T11:36:29.458Z,42.13
2023-05-16T11:37:29.439Z,43.96
2023-05-16T11:38:29.413Z,43.06
2023-05-16T11:39:29.472Z,45.35
2023-05-16T11:40:29.396Z,42.41
2023-05-16T11:41:29.459Z,41.31
2023-05-16T11:42:29.526Z,44.95
2023-05-16T11:43:29.370Z,43.12
2023-05-16T11:44:29.545Z,40.89
2023-05-16T11:45:29.537Z,44.38
2023-05-16T11:46:29.388Z,43.96
2023-05-16T11:47:29.379Z,42.54
2023-05-16T11:48:36.178Z,39.91
2023-05-16T11:49:30.301Z,44.92
2023-05-16T11:50:29.288Z,42.38
2023-05-16T11:51:29.331Z,41.47
2023-05-16T11:52:29.271Z,42.83
2023-05-16T11:53:29.263Z,44.29
2023-05-16T11:54:29.249Z,40.91
2023-05-16T11:55:41.188Z,41.39
2023-05-16T11:56:30.239Z,39.41
2023-05-16T11:57:29.218Z,38.29
2023-05-16T11:58:29.207Z,40.99
2023-05-16T11:59:29.192Z,37.59
2023-05-16T12:00:29.203Z,39.29
2023-05-16T12:01:30.321Z,34.59
2023-05-16T12:02:29.244Z,39.65
2023-05-16T12:03:29.245Z,36.74
2023-05-16T12:04:29.333Z,34.06
2023-05-16T12:05:29.445Z,34.88
2023-05-16T12:06:29.125Z,36.46
2023-05-16T12:07:29.110Z,35.10
2023-05-16T12:08:29.110Z,35.55
2023-05-16T12:09:29.130Z,37.38
2023-05-16T12:10:29.271Z,37.62
2023-05-16T12:11:46.567Z,39.14
2023-05-16T12:12:30.065Z,40.79
2023-05-16T12:13:29.047Z,42.60
2023-05-16T12:14:29.045Z,38.76
2023-05-16T12:15:29.229Z,39.16
2023-05-16T12:16:29.061Z,39.66
2023-05-16T12:17:29.021Z,42.58
2023-05-16T12:18:29.001Z,40.45
2023-05-16T12:19:29.009Z,42.76
2023-05-16T12:20:28.992Z,40.87
2023-05-16T12:21:28.959Z,41.96
2023-05-16T12:22:28.953Z,39.86
2023-05-16T12:23:28.939Z,42.46
2023-05-16T12:24:30.357Z,40.53
2023-05-16T12:25:29.519Z,40.71
2023-05-16T12:26:28.912Z,40.69
2023-05-16T12:27:28.898Z,41.82
2023-05-16T12:28:28.906Z,39.91
2023-05-16T12:29:28.879Z,40.45
2023-05-16T12:30:29.080Z,40.48
2023-05-16T12:31:31.798Z,41.82
2023-05-16T12:32:28.893Z,40.53
2023-05-16T12:33:28.961Z,41.43
2023-05-16T12:34:28.824Z,42.25
2023-05-16T12:35:28.811Z,42.21
2023-05-16T12:36:28.805Z,41.97
2023-05-16T12:37:28.791Z,40.85
2023-05-16T12:38:28.794Z,39.89
2023-05-16T12:39:28.775Z,40.45
2023-05-16T12:40:29.128Z,39.31
2023-05-16T12:41:28.750Z,41.47
2023-05-16T12:42:28.740Z,35.83
2023-05-16T12:43:28.737Z,39.25
2023-05-16T12:44:28.718Z,39.35
2023-05-16T12:45:28.739Z,38.57
2023-05-16T12:46:28.716Z,40.37
2023-05-16T12:47:28.866Z,40.37
2023-05-16T12:48:28.685Z,39.40
2023-05-16T12:49:28.665Z,42.16
2023-05-16T12:50:28.792Z,43.36
2023-05-16T12:51:28.649Z,42.83
2023-05-16T12:52:28.637Z,43.70
2023-05-16T12:53:28.621Z,39.27
2023-05-16T12:54:28.605Z,39.35
2023-05-16T12:55:28.603Z,34.96
2023-05-16T12:56:28.603Z,41.07
2023-05-16T12:57:28.591Z,38.77
2023-05-16T12:58:28.638Z,39.55
2023-05-16T12:59:28.558Z,41.71
2023-05-16T13:00:28.698Z,39.07
2023-05-16T13:01:28.663Z,39.74
2023-05-16T13:02:28.608Z,37.84
2023-05-16T13:03:29.320Z,40.86
2023-05-16T13:04:28.506Z,38.29
2023-05-16T13:07:04.096Z,37.71
2023-05-16T13:07:54.514Z,37.11
2023-05-16T13:08:54.861Z,37.92
2023-05-16T13:09:54.546Z,38.25
2023-05-16T13:10:54.797Z,37.08
2023-05-16T13:11:54.568Z,39.53
2023-05-16T13:12:54.644Z,37.00
2023-05-16T13:13:54.531Z,39.45
2023-05-16T13:14:55.636Z,41.93
2023-05-16T13:15:54.538Z,39.51
2023-05-16T13:17:09.148Z,36.78
2023-05-16T13:18:58.076Z,36.92
2023-05-16T13:18:58.475Z,38.28
2023-05-16T13:19:58.444Z,42.40
2023-05-16T13:20:58.451Z,39.76
2023-05-16T13:21:58.440Z,39.56
2023-05-16T13:22:58.406Z,39.76
2023-05-16T13:23:58.407Z,40.48
2023-05-16T13:24:58.438Z,42.47
2023-05-16T13:25:58.392Z,42.10
2023-05-16T13:26:58.401Z,40.77
2023-05-16T13:27:58.464Z,39.98
2023-05-16T13:28:58.368Z,42.40
2023-05-16T13:29:58.360Z,40.00
2023-05-16T13:31:00.190Z,40.50
2023-05-16T13:31:58.402Z,39.74
2023-05-16T13:32:58.367Z,41.35
2023-05-16T13:33:58.303Z,41.47
2023-05-16T13:34:58.298Z,42.96
2023-05-16T13:35:58.278Z,42.94
2023-05-16T13:36:58.272Z,40.75
2023-05-16T13:37:58.312Z,43.76
2023-05-16T13:38:58.240Z,45.83
2023-05-16T13:39:58.277Z,41.61
2023-05-16T13:40:58.225Z,40.00
2023-05-16T13:41:58.215Z,39.80
2023-05-16T13:42:58.206Z,39.90
2023-05-16T13:43:58.370Z,41.21
2023-05-16T13:44:58.194Z,40.61
2023-05-16T13:45:58.200Z,37.41
2023-05-16T13:46:58.168Z,39.40
2023-05-16T13:47:58.184Z,42.52
2023-05-16T13:48:59.734Z,40.70
2023-05-16T13:49:58.137Z,41.09
2023-05-16T13:50:58.119Z,39.56
2023-05-16T13:51:58.114Z,39.80
2023-05-16T13:52:58.094Z,38.01
2023-05-16T13:53:58.093Z,39.92
2023-05-16T13:54:58.074Z,40.04
2023-05-16T13:55:58.071Z,43.46
2023-05-16T13:56:58.052Z,43.56
2023-05-16T13:57:58.054Z,40.77
2023-05-16T13:59:01.112Z,40.16
2023-05-16T14:00:24.954Z,42.61
2023-05-16T14:00:59.037Z,40.50
2023-05-16T14:01:58.220Z,45.44
2023-05-16T14:02:58.064Z,41.51
2023-05-16T14:03:58.010Z,40.42
2023-05-16T14:04:57.986Z,43.95
2023-05-16T14:05:58.007Z,43.32
2023-05-16T14:06:57.969Z,42.80
2023-05-16T14:07:57.958Z,44.09
2023-05-16T14:08:57.969Z,43.34
2023-05-16T14:09:57.925Z,42.33
2023-05-16T14:10:57.926Z,42.84
2023-05-16T14:11:57.902Z,42.11
2023-05-16T14:12:57.896Z,42.60
2023-05-16T14:13:57.876Z,41.39